Latest Weather Observations for King Island Airport

IDT60801

Issued at 5:05 pm EDT Saturday 25 October 2014 (issued every 30 minutes, with the page automatically refreshed every 10 minutes)

About weather observations | Map of weather stations | Latest weather observations for TAS | Other Formats
Station Details ID: 098017 Name: KING ISLAND AIRPORT Lat: -39.88 Lon: 143.88 Height: 37.0 m
Data from the previous 72 hours. | See also: Recent months at King Island Airport
Date/Time
EDT
Temp
°C
App
Temp
°C
Dew
Point
Rel
Hum
%
Delta-T
°C
Wind Press
QNH
hPa
Press
MSL
hPa
Rain
since 9 am
mm
Dir
 
Spd
km/h
Gust
km/h
Spd
kts
Gust
kts
25/05:00pm 14.3 9.7 9.5 73 2.5 SSW 24 32 13 17 1015.8 1015.8 0.0
25/04:30pm 14.4 10.4 9.2 71 2.7 SSW 20 28 11 15 1015.9 1015.9 0.0
25/04:00pm 14.4 10.6 9.2 71 2.7 SSW 19 28 10 15 1016.1 1016.1 0.0
25/03:30pm 14.5 10.2 9.5 72 2.6 SSW 22 30 12 16 1016.5 1016.5 0.0
25/03:00pm 14.4 9.8 9.6 73 2.5 SSW 24 33 13 18 1016.9 1016.9 0.0
25/02:30pm 14.7 10.5 9.7 72 2.6 SSW 22 32 12 17 1017.1 1017.1 0.0
25/02:00pm 14.4 10.8 9.8 74 2.4 SSW 19 24 10 13 1017.4 1017.4 0.0
25/01:30pm 14.1 10.3 9.9 76 2.2 SSW 20 26 11 14 1017.4 1017.4 0.0
25/01:00pm 13.1 9.5 9.7 80 1.7 SSW 19 24 10 13 1017.9 1017.9 0.0
25/12:30pm 12.8 9.6 9.8 82 1.5 SSW 17 24 9 13 1018.2 1018.2 0.0
25/12:00pm 13.3 9.5 9.9 80 1.7 SSW 20 28 11 15 1017.9 1017.9 0.0
25/11:30am 13.5 11.5 10.3 81 1.7 S 11 17 6 9 1017.6 1017.6 0.0
25/11:00am 13.2 10.8 10.0 81 1.6 SSW 13 17 7 9 1018.2 1018.2 0.0
25/10:30am 13.2 10.7 9.6 79 1.8 SSW 13 17 7 9 1018.4 1018.4 0.0
25/10:00am 13.3 10.7 9.2 76 2.1 SSW 13 17 7 9 1018.4 1018.4 0.0
25/09:30am 13.3 10.4 9.5 78 1.9 SSW 15 20 8 11 1018.1 1018.1 0.0
25/09:00am 13.4 11.4 10.0 80 1.8 S 11 17 6 9 1017.9 1017.9 0.0
25/08:30am 13.0 11.2 9.4 79 1.8 SSW 9 11 5 6 1017.9 1017.9 0.0
25/08:00am 13.0 10.0 9.4 79 1.8 SSW 15 19 8 10 1017.8 1017.8 0.0
25/07:30am 12.8 10.7 9.6 81 1.6 S 11 19 6 10 1017.3 1017.3 0.0
25/07:00am 12.4 10.4 10.1 86 1.2 SSW 11 15 6 8 1016.8 1016.8 0.0
25/06:30am 12.7 10.0 10.4 86 1.2 SSW 15 20 8 11 1016.4 1016.4 0.0
25/06:00am 12.7 9.6 10.4 86 1.2 SSW 17 24 9 13 1016.1 1016.1 0.0
25/05:30am 12.8 9.8 10.5 86 1.2 SSW 17 20 9 11 1015.9 1015.9 0.0
25/05:00am 12.6 9.4 10.1 85 1.3 SW 17 24 9 13 1015.7 1015.7 0.0
25/04:30am 13.1 9.5 10.5 84 1.4 SW 20 28 11 15 1015.5 1015.5 0.0
25/04:00am 13.0 9.2 9.1 77 2.0 SW 19 28 10 15 1015.2 1015.2 0.0
25/03:30am 13.1 9.7 9.2 77 2.0 SW 17 26 9 14 1015.3 1015.3 0.0
25/03:00am 12.9 9.1 9.7 81 1.6 WSW 20 32 11 17 1015.3 1015.3 0.0
25/02:30am 13.2 8.4 10.4 83 1.5 SW 26 33 14 18 1015.2 1015.2 0.0
25/02:00am 13.5 9.0 9.9 79 1.9 SW 24 35 13 19 1015.3 1015.3 0.0
25/01:30am 13.4 8.9 10.2 81 1.7 WSW 24 32 13 17 1015.4 1015.4 0.0
25/01:00am 13.3 8.3 9.4 77 2.0 WSW 26 35 14 19 1015.6 1015.6 0.0
25/12:30am 13.5 8.6 10.1 80 1.8 WSW 26 35 14 19 1015.5 1015.5 0.0
25/12:00am 13.2 8.0 10.4 83 1.5 WSW 28 37 15 20 1015.3 1015.3 0.0
 
Date/Time
EDT
Temp
°C
App
Temp
°C
Dew
Point
Rel
Hum
%
Delta-T
°C
Wind Press
QNH
hPa
Press
MSL
hPa
Rain
since 9 am
mm
Dir
 
Spd
km/h
Gust
km/h
Spd
kts
Gust
kts
24/11:30pm 13.6 8.9 10.6 82 1.6 WSW 26 33 14 18 1015.1 1015.1 0.0
24/11:00pm 13.5 8.8 10.7 83 1.5 WSW 26 35 14 19 1014.9 1014.9 0.0
24/10:30pm 13.7 10.7 12.1 90 0.9 W 19 26 10 14 1014.5 1014.5 0.0
24/10:00pm 13.7 9.8 12.1 90 0.9 W 24 32 13 17 1014.5 1014.5 0.0
24/09:30pm 13.7 10.7 12.4 92 0.7 W 20 32 11 17 1013.9 1013.9 0.0
24/09:29pm 13.7 10.7 12.4 92 0.7 W 20 32 11 17 1013.9 1013.9 0.0
24/09:12pm 13.8 10.8 12.5 92 0.7 W 20 30 11 16 1013.9 1013.9 0.0
24/09:00pm 13.9 10.5 12.6 92 0.7 W 22 32 12 17 1013.8 1013.8 0.0
24/08:31pm 14.0 10.4 12.9 93 0.6 W 24 33 13 18 1013.4 1013.4 0.0
24/08:30pm 14.0 10.4 12.9 93 0.6 W 24 33 13 18 1013.4 1013.4 0.0
24/08:00pm 14.0 10.4 12.9 93 0.6 W 24 35 13 19 1012.9 1012.9 0.0
24/07:30pm 14.3 10.7 13.2 93 0.6 W 24 33 13 18 1012.3 1012.3 0.0
24/07:00pm 14.6 11.5 13.5 93 0.6 W 22 32 12 17 1011.9 1011.9 0.0
24/06:30pm 15.0 11.7 13.9 93 0.6 W 24 33 13 18 1011.6 1011.6 0.0
24/06:00pm 15.2 11.6 14.1 93 0.6 W 26 35 14 19 1011.4 1011.4 0.0
24/05:53pm 15.1 11.4 14.0 93 0.6 WNW 26 35 14 19 1011.4 1011.4 0.0
24/05:32pm 15.2 11.4 13.7 91 0.8 WNW 26 35 14 19 1011.2 1011.2 0.0
24/05:30pm 15.2 11.4 13.7 91 0.8 WNW 26 35 14 19 1011.2 1011.2 0.0
24/05:00pm 15.5 11.0 13.7 89 1.0 WNW 30 35 16 19 1010.9 1010.9 0.0
24/04:30pm 16.1 11.6 13.8 86 1.3 NW 30 35 16 19 1010.8 1010.8 0.0
24/04:00pm 17.0 14.2 14.3 84 1.5 NW 22 28 12 15 1010.1 1010.1 0.0
24/03:30pm 16.7 13.9 14.2 85 1.4 NW 22 28 12 15 1010.4 1010.4 0.0
24/03:00pm 16.7 14.2 14.0 84 1.5 WNW 20 28 11 15 1010.7 1010.7 0.0
24/02:30pm 16.2 13.0 14.2 88 1.1 NW 24 30 13 16 1011.0 1011.0 0.0
24/02:12pm 16.0 12.0 14.0 88 1.1 NW 28 33 15 18 1011.2 1011.2 0.0
24/02:00pm 16.6 14.2 14.4 87 1.3 NNW 20 28 11 15 1011.0 1011.0 0.0
24/01:30pm 17.4 14.0 15.9 91 0.9 N 28 32 15 17 1011.2 1011.2 0.0
24/01:21pm 17.0 13.6 15.7 92 0.8 N 28 32 15 17 1011.0 1011.0 0.0
24/01:00pm 16.5 14.7 16.0 97 0.3 N 20 28 11 15 1011.3 1011.3 0.0
24/12:30pm 16.4 13.9 16.1 98 0.2 NE 24 30 13 16 1011.3 1011.3 0.0
24/12:00pm 16.1 13.1 15.9 99 0.1 ENE 26 33 14 18 1011.2 1011.2 0.0
24/11:39am 15.8 11.9 15.6 99 0.1 ENE 30 39 16 21 1011.4 1011.4 0.0
24/11:30am 15.8 11.9 15.6 99 0.1 ENE 30 39 16 21 1011.5 1011.5 0.0
24/11:00am 15.6 11.4 15.6 100 0.0 ENE 32 41 17 22 1011.8 1011.8 0.0
24/10:30am 15.4 11.1 15.4 100 0.0 ENE 32 43 17 23 1012.1 1012.1 0.0
24/10:00am 15.1 10.7 15.1 100 0.0 ENE 32 39 17 21 1012.5 1012.5 0.0
24/09:30am 14.7 10.4 14.5 99 0.1 E 30 39 16 21 1012.5 1012.5 0.0
24/09:10am 14.3 9.5 14.1 99 0.1 ENE 32 50 17 27 1012.7 1012.7 0.0
24/09:00am 14.2 8.8 14.0 99 0.1 E 35 48 19 26 1012.5 1012.5 0.0
24/08:36am 14.1 8.3 13.9 99 0.1 E 37 56 20 30 1012.5 1012.5 0.0
24/08:30am 14.0 7.8 13.8 99 0.1 E 39 56 21 30 1012.6 1012.6 0.0
24/08:00am 13.8 7.5 13.5 98 0.2 E 39 52 21 28 1013.0 1013.0 0.0
24/07:31am 13.7 7.0 13.4 98 0.2 E 41 59 22 32 1012.9 1012.9 0.0
24/07:30am 13.8 7.5 13.5 98 0.2 E 39 54 21 29 1012.9 1012.9 0.0
24/07:19am 13.7 7.0 13.4 98 0.2 E 41 59 22 32 1012.9 1012.9 0.0
24/07:00am 13.5 6.3 13.0 97 0.3 E 43 59 23 32 1013.0 1013.0 0.0
24/06:47am 13.5 6.3 13.0 97 0.3 E 43 63 23 34 1013.1 1013.1 0.0
24/06:30am 13.4 6.0 12.9 97 0.3 E 44 59 24 32 1013.3 1013.3 0.0
24/06:00am 13.3 5.7 12.5 95 0.4 E 44 57 24 31 1013.4 1013.4 0.0
24/05:30am 13.4 5.4 12.3 93 0.6 E 46 65 25 35 1013.6 1013.6 0.0
24/05:23am 13.4 5.4 12.3 93 0.6 E 46 65 25 35 1013.7 1013.7 0.0
24/05:09am 13.5 5.4 12.1 91 0.8 E 46 61 25 33 1013.9 1013.9 0.0
24/05:00am 13.5 5.4 11.9 90 0.9 E 46 65 25 35 1013.9 1013.9 0.0
24/04:30am 13.6 5.8 11.8 89 1.0 E 44 63 24 34 1014.3 1014.3 0.0
24/04:14am 13.6 6.0 11.8 89 1.0 E 43 63 23 34 1014.6 1014.6 0.0
24/04:00am 13.5 5.8 11.6 88 1.0 E 43 57 23 31 1014.7 1014.7 0.0
24/03:30am 13.5 5.6 11.6 88 1.0 E 44 63 24 34 1015.1 1015.1 0.0
24/03:18am 13.5 5.6 11.6 88 1.0 E 44 72 24 39 1015.2 1015.2 0.0
24/03:00am 13.5 5.3 11.6 88 1.0 E 46 61 25 33 1015.5 1015.5 0.0
24/02:32am 13.5 5.6 11.6 88 1.0 E 44 63 24 34 1015.6 1015.6 0.0
24/02:30am 13.5 5.3 11.6 88 1.0 E 46 63 25 34 1015.6 1015.6 0.0
24/02:02am 13.5 5.3 11.6 88 1.0 E 46 65 25 35 1016.4 1016.4 0.0
24/02:00am 13.5 5.3 11.6 88 1.0 E 46 59 25 32 1016.4 1016.4 0.0
24/01:30am 13.5 5.7 11.7 89 1.0 E 44 67 24 36 1016.9 1016.9 0.0
24/01:02am 13.5 5.8 11.6 88 1.0 E 43 63 23 34 1017.4 1017.4 0.0
24/01:00am 13.5 5.8 11.6 88 1.0 E 43 56 23 30 1017.4 1017.4 0.0
24/12:46am 13.5 5.6 11.6 88 1.0 E 44 61 24 33 1017.4 1017.4 0.0
24/12:41am 13.5 6.2 11.6 88 1.0 E 41 61 22 33 1017.4 1017.4 0.0
24/12:30am 13.5 5.6 11.6 88 1.0 E 44 57 24 31 1017.5 1017.5 0.0
24/12:00am 13.6 6.0 11.7 88 1.0 E 43 63 23 34 1017.8 1017.8 0.0
 
Date/Time
EDT
Temp
°C
App
Temp
°C
Dew
Point
Rel
Hum
%
Delta-T
°C
Wind Press
QNH
hPa
Press
MSL
hPa
Rain
since 9 am
mm
Dir
 
Spd
km/h
Gust
km/h
Spd
kts
Gust
kts
23/11:45pm 13.5 6.2 11.4 87 1.1 E 41 59 22 32 1018.2 1018.2 0.0
23/11:30pm 13.6 6.3 11.7 88 1.0 E 41 54 22 29 1018.3 1018.3 0.0
23/11:11pm 13.6 6.7 11.7 88 1.0 E 39 57 21 31 1018.6 1018.6 0.0
23/11:00pm 13.6 6.3 11.7 88 1.0 E 41 57 22 31 1018.8 1018.8 0.0
23/10:51pm 13.5 6.6 11.6 88 1.0 E 39 57 21 31 1018.8 1018.8 0.0
23/10:30pm 13.3 7.1 11.5 89 1.0 E 35 48 19 26 1019.1 1019.1 0.0
23/10:00pm 13.1 6.9 11.3 89 0.9 E 35 52 19 28 1019.1 1019.1 0.0
23/09:58pm 13.1 7.2 11.3 89 1.0 E 33 52 18 28 1019.1 1019.1 0.0
23/09:30pm 13.1 6.5 11.3 89 1.0 E 37 50 20 27 1019.4 1019.4 0.0
23/09:00pm 13.1 6.5 11.3 89 0.9 E 37 50 20 27 1019.2 1019.2 0.0
23/08:31pm 13.1 6.5 11.3 89 1.0 E 37 56 20 30 1019.1 1019.1 0.0
23/08:30pm 13.1 6.5 11.2 88 1.0 E 37 54 20 29 1019.1 1019.1 0.0
23/08:04pm 13.0 7.3 11.1 88 1.0 E 32 50 17 27 1019.2 1019.2 0.0
23/08:00pm 13.1 6.8 11.2 88 1.0 E 35 50 19 27 1019.2 1019.2 0.0
23/07:47pm 13.2 6.9 11.1 87 1.1 E 35 56 19 30 1019.3 1019.3 0.0
23/07:30pm 13.4 7.1 11.1 86 1.2 E 35 52 19 28 1019.3 1019.3 0.0
23/07:12pm 13.6 6.9 11.1 85 1.3 E 37 56 20 30 1019.3 1019.3 0.0
23/07:00pm 13.8 6.8 11.1 84 1.4 E 39 54 21 29 1019.2 1019.2 0.0
23/06:30pm 14.2 6.8 11.2 82 1.6 E 41 56 22 30 1019.3 1019.3 0.0
23/06:02pm 14.3 8.4 11.3 82 1.6 E 33 52 18 28 1019.5 1019.5 0.0
23/06:00pm 14.4 7.8 11.4 82 1.6 E 37 52 20 28 1019.6 1019.6 0.0
23/05:31pm 14.9 7.0 11.5 80 1.8 E 44 63 24 34 1019.7 1019.7 0.0
23/05:30pm 14.9 6.6 11.5 80 1.8 E 46 63 25 34 1019.7 1019.7 0.0
23/05:25pm 14.8 6.9 11.4 80 1.8 E 44 63 24 34 1019.7 1019.7 0.0
23/05:00pm 15.5 7.9 11.9 79 1.9 E 43 57 23 31 1019.7 1019.7 0.0
23/04:30pm 16.1 8.7 12.5 79 2.0 E 43 57 23 31 1019.4 1019.4 0.0
23/04:04pm 16.0 9.0 12.6 80 1.9 E 41 59 22 32 1019.5 1019.5 0.0
23/04:00pm 15.7 8.3 12.3 80 1.9 E 43 59 23 32 1019.6 1019.6 0.0
23/03:53pm 15.7 8.6 12.3 80 1.9 E 41 59 22 32 1019.6 1019.6 0.0
23/03:52pm 15.9 8.9 12.5 80 1.9 E 41 56 22 30 1019.6 1019.6 0.0
23/03:30pm 15.7 7.7 12.5 81 1.8 E 46 59 25 32 1019.6 1019.6 0.0
23/03:08pm 15.3 8.3 12.4 83 1.6 E 41 65 22 35 1019.6 1019.6 0.0
23/03:00pm 15.4 8.5 12.9 85 1.4 E 41 54 22 29 1019.7 1019.7 0.0
23/02:41pm 14.9 7.7 13.1 89 1.0 E 43 61 23 33 1020.0 1020.0 0.0
23/02:30pm 14.9 8.6 13.4 91 0.8 E 39 56 21 30 1020.0 1020.0 0.0
23/02:22pm 14.4 8.0 13.1 92 0.7 E 39 57 21 31 1020.0 1020.0 0.0
23/02:00pm 14.2 8.5 13.1 93 0.6 E 35 54 19 29 1020.3 1020.3 0.0
23/01:34pm 14.2 7.3 12.9 92 0.7 E 41 54 22 29 1020.3 1020.3 0.0
23/01:30pm 14.5 8.4 13.0 91 0.8 E 37 50 20 27 1020.3 1020.3 0.0
23/01:09pm 15.0 8.3 13.5 91 0.8 E 41 59 22 32 1020.4 1020.4 0.0
23/01:00pm 14.9 7.8 13.4 91 0.8 E 43 59 23 32 1020.3 1020.3 0.0
23/12:59pm 14.8 7.7 13.3 91 0.8 E 43 59 23 32 1020.3 1020.3 0.0
23/12:56pm 15.0 8.4 13.7 92 0.7 E 41 59 22 32 1020.3 1020.3 0.0
23/12:32pm 14.9 7.7 13.1 89 1.0 E 43 54 23 29 1020.4 1020.4 0.0
23/12:30pm 15.0 8.2 13.2 89 1.0 E 41 54 22 29 1020.4 1020.4 0.0
23/12:00pm 14.9 8.5 13.1 89 1.0 E 39 52 21 28 1020.6 1020.6 0.0
23/11:43am 15.0 8.5 13.0 88 1.1 E 39 57 21 31 1020.6 1020.6 0.0
23/11:30am 15.2 9.9 13.2 88 1.1 E 33 46 18 25 1020.8 1020.8 0.0
23/11:00am 14.8 10.1 13.3 91 0.8 E 30 37 16 20 1020.9 1020.9 0.0
23/10:30am 14.5 10.5 13.0 91 0.8 ESE 26 37 14 20 1021.0 1021.0 0.0
23/10:00am 14.3 10.0 12.2 87 1.1 SE 26 35 14 19 1021.1 1021.1 0.0
23/09:53am 14.6 10.0 12.3 86 1.3 SE 28 35 15 19 1021.2 1021.2 0.0
23/09:30am 14.6 10.3 12.1 85 1.4 SE 26 33 14 18 1021.2 1021.2 0.0
23/09:00am 14.0 8.3 11.3 84 1.4 SE 32 44 17 24 1021.1 1021.1 0.0
23/08:32am 13.7 9.7 11.7 88 1.1 SSE 24 35 13 19 1021.2 1021.2 0.0
23/08:30am 13.6 9.2 11.7 88 1.0 SSE 26 35 14 19 1021.2 1021.2 0.0
23/08:00am 13.4 9.3 11.5 88 1.0 SSE 24 37 13 20 1020.8 1020.8 0.0
23/07:30am 12.9 8.7 11.1 89 0.9 SSE 24 35 13 19 1020.3 1020.3 0.0
23/07:00am 12.7 9.2 10.9 89 0.9 SSE 20 30 11 16 1020.0 1020.0 0.0
23/06:30am 12.5 8.2 10.7 89 0.9 S 24 43 13 23 1019.6 1019.6 0.0
23/06:00am 12.6 8.4 11.0 90 0.8 S 24 39 13 21 1019.8 1019.8 0.0
23/05:30am 12.6 8.8 11.0 90 0.8 S 22 33 12 18 1019.7 1019.7 0.0
23/05:00am 12.9 8.7 11.1 89 0.9 S 24 39 13 21 1019.8 1019.8 0.0
23/04:30am 12.9 9.7 11.1 89 0.9 S 19 32 10 17 1019.7 1019.7 0.0
23/04:00am 13.1 10.3 11.3 89 0.9 S 17 26 9 14 1019.6 1019.6 0.0
23/03:30am 13.1 9.9 11.2 88 1.0 S 19 30 10 16 1019.5 1019.5 0.0
23/03:00am 13.2 9.8 11.1 87 1.1 SSE 20 32 11 17 1019.6 1019.6 0.0
23/02:30am 13.2 10.0 11.1 87 1.1 SSE 19 28 10 15 1019.5 1019.5 0.0
23/02:00am 13.2 9.4 11.1 87 1.1 SSE 22 35 12 19 1019.4 1019.4 0.0
23/01:30am 13.1 9.3 11.3 89 1.0 SSE 22 33 12 18 1019.5 1019.5 0.0
23/01:00am 13.3 8.5 11.5 89 1.0 S 28 39 15 21 1019.1 1019.1 0.0
23/12:30am 13.3 8.6 11.9 91 0.8 S 28 39 15 21 1018.8 1018.8 0.0
23/12:00am 13.3 8.6 11.9 91 0.7 S 28 39 15 21 1018.8 1018.8 0.0
 
Date/Time
EDT
Temp
°C
App
Temp
°C
Dew
Point
Rel
Hum
%
Delta-T
°C
Wind Press
QNH
hPa
Press
MSL
hPa
Rain
since 9 am
mm
Dir
 
Spd
km/h
Gust
km/h
Spd
kts
Gust
kts
22/11:30pm 13.6 9.3 12.2 91 0.8 S 26 44 14 24 1019.1 1019.1 0.0
22/11:00pm 13.7 10.7 12.4 92 0.7 S 20 32 11 17 1019.2 1019.2 0.0
22/10:30pm 13.9 11.5 12.8 93 0.6 S 17 26 9 14 1019.2 1019.2 0.0
22/10:00pm 14.2 11.4 13.1 93 0.6 S 20 35 11 19 1018.9 1018.9 0.0
22/09:30pm 14.2 11.6 13.1 93 0.6 S 19 28 10 15 1018.5 1018.5 0.0
22/09:00pm 14.3 10.7 13.2 93 0.6 S 24 33 13 18 1018.2 1018.2 0.0
22/08:30pm 14.3 11.1 13.2 93 0.6 S 22 37 12 20 1017.8 1017.8 0.0
22/08:00pm 14.3 9.9 13.0 92 0.7 S 28 41 15 22 1017.4 1017.4 0.0
22/07:45pm 14.5 10.1 13.0 91 0.8 SSW 28 41 15 22 1017.3 1017.3 0.0
22/07:30pm 14.7 10.4 13.1 90 0.9 S 28 35 15 19 1017.1 1017.1 0.0
22/07:00pm 15.6 10.6 13.4 87 1.2 SSW 32 44 17 24 1016.6 1016.6 0.0
22/06:30pm 15.4 12.5 12.9 85 1.4 SW 20 30 11 16 1016.4 1016.4 0.0
22/06:00pm 16.7 13.7 12.5 76 2.3 W 20 26 11 14 1016.1 1016.1 0.0
22/05:30pm 18.4 16.6 13.3 72 2.9 WNW 15 17 8 9 1015.6 1015.6 0.0

Other Formats:

Comma delimited format used in spreadsheet applications
http://www.bom.gov.au/fwo/IDT60801/IDT60801.94850.axf

JavaScript Object Notation format (JSON) in row-major order
http://www.bom.gov.au/fwo/IDT60801/IDT60801.94850.json